createdAt,value
2022-11-24T00:01:16.647Z,19.73
2022-11-24T00:03:45.808Z,19.60
2022-11-24T00:06:15.353Z,20.07
2022-11-24T00:08:45.654Z,20.40
2022-11-24T00:11:17.638Z,20.60
2022-11-24T00:13:46.287Z,19.63
2022-11-24T00:16:15.734Z,20.20
2022-11-24T00:18:45.350Z,20.00
2022-11-24T00:21:13.809Z,19.90
2022-11-24T00:23:42.012Z,19.90
2022-11-24T00:26:12.391Z,19.17
2022-11-24T00:28:43.683Z,20.03
2022-11-24T00:31:20.086Z,19.60
2022-11-24T00:33:49.575Z,19.40
2022-11-24T00:36:19.079Z,19.40
2022-11-24T00:38:47.638Z,18.73
2022-11-24T00:41:15.888Z,18.73
2022-11-24T00:43:45.449Z,19.73
2022-11-24T00:46:13.887Z,17.97
2022-11-24T00:48:42.215Z,17.77
2022-11-24T00:51:13.193Z,17.20
2022-11-24T00:53:41.874Z,17.10
2022-11-24T00:56:10.956Z,17.17
2022-11-24T00:58:39.892Z,17.00
2022-11-24T01:01:11.755Z,16.43
2022-11-24T01:03:40.682Z,17.27
2022-11-24T01:06:11.102Z,17.63
2022-11-24T01:08:40.370Z,17.23
2022-11-24T01:11:13.892Z,17.53
2022-11-24T01:13:43.072Z,17.13
2022-11-24T01:16:21.750Z,17.27
2022-11-24T01:18:50.484Z,18.07
2022-11-24T01:21:19.082Z,17.50
2022-11-24T01:23:47.250Z,17.33
2022-11-24T01:26:17.022Z,17.30
2022-11-24T01:28:47.530Z,18.10
2022-11-24T01:31:17.200Z,17.73
2022-11-24T01:33:46.854Z,16.97
2022-11-24T01:36:15.282Z,16.67
2022-11-24T01:38:43.598Z,18.50
2022-11-24T01:41:15.052Z,17.50
2022-11-24T01:43:44.402Z,17.50
2022-11-24T01:46:18.894Z,19.77
2022-11-24T01:48:53.104Z,18.60
2022-11-24T01:51:26.321Z,18.47
2022-11-24T01:54:00.210Z,19.33
2022-11-24T01:56:29.661Z,18.57
2022-11-24T01:59:00.344Z,18.30
2022-11-24T02:01:29.409Z,18.50
2022-11-24T02:04:00.436Z,18.20
2022-11-24T02:06:31.410Z,19.33
2022-11-24T02:09:03.712Z,20.13
2022-11-24T02:11:36.004Z,18.37
2022-11-24T02:14:06.389Z,19.23
2022-11-24T02:16:36.764Z,17.67
2022-11-24T02:19:14.608Z,19.10
2022-11-24T02:21:42.750Z,18.83
2022-11-24T02:24:19.193Z,19.00
2022-11-24T02:26:52.017Z,17.73
2022-11-24T02:29:21.035Z,18.87
2022-11-24T02:31:53.029Z,18.60
2022-11-24T02:34:21.453Z,18.23
2022-11-24T02:36:49.593Z,18.67
2022-11-24T02:39:17.836Z,18.93
2022-11-24T02:41:51.479Z,18.90
2022-11-24T02:44:21.403Z,19.10
2022-11-24T02:46:49.531Z,19.13
2022-11-24T02:49:17.716Z,18.60
2022-11-24T02:51:46.068Z,19.00
2022-11-24T02:54:14.229Z,17.93
2022-11-24T02:56:42.397Z,19.03
2022-11-24T02:59:11.936Z,18.63
2022-11-24T03:01:40.184Z,19.20
2022-11-24T03:04:08.510Z,19.20
2022-11-24T03:06:36.679Z,20.00
2022-11-24T03:09:04.891Z,19.73
2022-11-24T03:11:33.103Z,18.67
2022-11-24T03:14:01.260Z,18.73
2022-11-24T03:16:30.867Z,19.10
2022-11-24T03:18:59.140Z,17.27
2022-11-24T03:21:27.418Z,17.13
2022-11-24T03:23:55.656Z,17.93
2022-11-24T03:26:25.910Z,18.30
2022-11-24T03:28:57.223Z,18.17
2022-11-24T03:31:25.589Z,17.57
2022-11-24T03:33:55.182Z,16.00
2022-11-24T03:36:23.372Z,18.10
2022-11-24T03:38:51.527Z,16.40
2022-11-24T03:41:19.783Z,17.73
2022-11-24T03:43:48.028Z,15.27
2022-11-24T03:46:16.272Z,15.57
2022-11-24T03:48:44.763Z,15.70
2022-11-24T03:51:14.517Z,16.13
2022-11-24T03:53:42.941Z,15.37
2022-11-24T03:56:11.396Z,14.50
2022-11-24T03:58:39.825Z,15.10
2022-11-24T04:01:08.322Z,14.40
2022-11-24T04:03:36.857Z,14.17
2022-11-24T04:06:05.327Z,13.57
2022-11-24T04:08:35.162Z,13.43
2022-11-24T04:11:03.604Z,12.97
2022-11-24T04:13:31.045Z,13.70
2022-11-24T04:15:59.506Z,13.20
2022-11-24T04:18:27.746Z,12.83
2022-11-24T04:20:55.877Z,12.80
2022-11-24T04:23:24.245Z,12.77
2022-11-24T04:25:54.081Z,13.03
2022-11-24T04:28:22.500Z,12.67
2022-11-24T04:30:51.016Z,11.73
2022-11-24T04:33:19.574Z,12.40
2022-11-24T04:35:48.009Z,12.10
2022-11-24T04:39:19.633Z,12.30
2022-11-24T04:41:06.839Z,12.07
2022-11-24T04:43:40.421Z,12.27
2022-11-24T04:46:12.169Z,11.40
2022-11-24T04:48:40.618Z,11.43
2022-11-24T04:51:09.118Z,11.17
2022-11-24T04:53:37.578Z,10.67
2022-11-24T04:56:08.429Z,10.90
2022-11-24T04:58:36.974Z,10.70
2022-11-24T05:01:08.566Z,10.40
2022-11-24T05:03:37.139Z,10.80
2022-11-24T05:06:05.638Z,10.67
2022-11-24T05:08:34.095Z,11.00
2022-11-24T05:11:05.474Z,10.33
2022-11-24T05:13:35.364Z,9.70
2022-11-24T05:16:03.961Z,9.30
2022-11-24T05:18:32.393Z,10.07
2022-11-24T05:21:01.237Z,9.57
2022-11-24T05:23:29.683Z,9.17
2022-11-24T05:26:00.999Z,9.07
2022-11-24T05:28:29.582Z,9.07
2022-11-24T05:31:02.182Z,8.83
2022-11-24T05:33:33.382Z,8.63
2022-11-24T05:36:02.764Z,9.50
2022-11-24T05:38:31.293Z,8.77
2022-11-24T05:41:02.047Z,8.53
2022-11-24T05:43:30.480Z,7.77
2022-11-24T05:46:02.213Z,8.90
2022-11-24T05:48:30.748Z,8.57
2022-11-24T05:50:59.762Z,7.90
2022-11-24T05:53:28.319Z,7.93
2022-11-24T05:55:56.849Z,8.37
2022-11-24T05:58:25.278Z,8.13
2022-11-24T06:00:53.793Z,8.00
2022-11-24T06:03:23.841Z,8.00
2022-11-24T06:05:52.289Z,7.17
2022-11-24T06:08:20.718Z,7.23
2022-11-24T06:10:49.180Z,6.87
2022-11-24T06:13:17.632Z,7.07
2022-11-24T06:15:46.515Z,6.57
2022-11-24T06:18:14.914Z,6.57
2022-11-24T06:21:02.858Z,7.67
2022-11-24T06:23:33.188Z,7.03
2022-11-24T06:26:01.639Z,7.60
2022-11-24T06:28:30.117Z,7.33
2022-11-24T06:31:01.957Z,7.73
2022-11-24T06:33:33.366Z,6.47
2022-11-24T06:36:04.811Z,6.97
2022-11-24T06:38:33.423Z,6.73
2022-11-24T06:41:02.401Z,6.80
2022-11-24T06:43:31.369Z,6.67
2022-11-24T06:46:00.123Z,6.33
2022-11-24T06:48:29.082Z,6.43
2022-11-24T06:51:00.592Z,6.63
2022-11-24T06:53:31.687Z,6.40
2022-11-24T06:56:00.775Z,5.63
2022-11-24T06:58:29.318Z,5.47
2022-11-24T07:00:57.840Z,6.33
2022-11-24T07:03:26.457Z,4.93
2022-11-24T07:05:57.940Z,5.43
2022-11-24T07:08:26.403Z,6.30
2022-11-24T07:10:56.200Z,6.27
2022-11-24T07:13:24.651Z,5.33
2022-11-24T07:15:53.108Z,5.80
2022-11-24T07:18:21.525Z,5.53
2022-11-24T07:20:49.997Z,5.37
2022-11-24T07:23:18.430Z,5.40
2022-11-24T07:25:46.844Z,5.50
2022-11-24T07:28:16.684Z,5.20
2022-11-24T07:30:45.115Z,5.80
2022-11-24T07:33:13.552Z,5.60
2022-11-24T07:35:42.030Z,5.50
2022-11-24T07:38:10.440Z,4.47
2022-11-24T07:40:38.866Z,4.60
2022-11-24T07:43:07.297Z,5.30
2022-11-24T07:45:37.176Z,5.17
2022-11-24T07:48:05.780Z,5.03
2022-11-24T07:50:34.217Z,5.17
2022-11-24T07:53:03.416Z,5.20
2022-11-24T07:55:31.982Z,5.30
2022-11-24T07:58:03.526Z,5.20
2022-11-24T08:00:31.812Z,5.40
2022-11-24T08:03:01.473Z,5.70
2022-11-24T08:05:29.825Z,5.13
2022-11-24T08:08:00.541Z,4.97
2022-11-24T08:10:28.749Z,5.20
2022-11-24T08:13:00.818Z,5.00
2022-11-24T08:15:29.294Z,4.87
2022-11-24T08:17:57.744Z,5.30
2022-11-24T08:20:27.325Z,5.20
2022-11-24T08:22:58.994Z,5.37
2022-11-24T08:25:32.033Z,5.33
2022-11-24T08:28:00.285Z,5.27
2022-11-24T08:30:28.756Z,5.70
2022-11-24T08:32:57.206Z,5.17
2022-11-24T08:35:26.804Z,5.90
2022-11-24T08:37:55.934Z,6.00
2022-11-24T08:40:26.288Z,5.47
2022-11-24T08:42:58.579Z,5.70
2022-11-24T08:45:30.439Z,6.37
2022-11-24T08:47:58.963Z,6.30
2022-11-24T08:50:28.537Z,5.73
2022-11-24T08:52:56.978Z,6.27
2022-11-24T08:55:25.468Z,5.87
2022-11-24T08:57:53.630Z,5.70
2022-11-24T09:00:23.834Z,6.00
2022-11-24T09:02:56.203Z,6.13
2022-11-24T09:05:50.536Z,6.50
2022-11-24T09:08:14.624Z,6.93
2022-11-24T09:10:43.170Z,7.03
2022-11-24T09:13:11.620Z,6.93
2022-11-24T09:15:40.065Z,6.70
2022-11-24T09:18:08.525Z,7.40
2022-11-24T09:20:36.702Z,7.47
2022-11-24T09:23:04.865Z,7.37
2022-11-24T09:25:34.461Z,7.00
2022-11-24T09:28:02.612Z,6.90
2022-11-24T09:30:31.009Z,7.10
2022-11-24T09:32:59.420Z,7.50
2022-11-24T09:35:27.581Z,7.70
2022-11-24T13:22:41.098Z,7.70
2022-11-24T13:25:20.172Z,7.63
2022-11-24T13:27:52.089Z,8.33
2022-11-24T13:30:59.306Z,6.90
2022-11-24T13:33:38.378Z,8.87
2022-11-24T13:36:54.073Z,9.27
2022-11-24T13:39:50.109Z,7.47
2022-11-24T13:42:42.287Z,7.77
2022-11-24T13:45:45.750Z,8.70
2022-11-24T13:48:47.038Z,7.67
2022-11-24T13:51:23.677Z,7.60
2022-11-24T13:53:54.178Z,8.13
2022-11-24T13:56:27.684Z,7.80
2022-11-24T13:58:58.641Z,6.07
2022-11-24T14:01:29.509Z,7.07
2022-11-24T14:04:30.642Z,8.00
2022-11-24T14:07:07.332Z,7.00
2022-11-24T14:09:41.542Z,5.43
2022-11-24T14:12:15.764Z,7.53
2022-11-24T14:14:45.477Z,9.33
2022-11-24T14:17:22.935Z,8.50
2022-11-24T14:19:52.926Z,7.80
2022-11-24T14:22:26.554Z,9.20
2022-11-24T14:24:56.650Z,9.80
2022-11-24T14:27:30.851Z,7.37
2022-11-24T14:30:00.943Z,8.20
2022-11-24T14:32:29.448Z,9.07
2022-11-24T14:34:57.900Z,8.37
2022-11-24T14:37:26.196Z,8.00
2022-11-24T14:39:55.129Z,9.03
2022-11-24T14:42:27.218Z,9.43
2022-11-24T14:44:59.013Z,8.70
2022-11-24T14:47:32.413Z,7.73
2022-11-24T14:50:10.421Z,8.90
2022-11-24T14:52:48.410Z,9.97
2022-11-24T14:55:30.794Z,9.03
2022-11-24T14:58:00.804Z,7.40
2022-11-24T15:00:32.595Z,9.63
2022-11-24T15:03:17.154Z,10.23
2022-11-24T15:05:54.596Z,8.50
2022-11-24T15:08:23.697Z,9.03
2022-11-24T15:10:59.055Z,10.67
2022-11-24T15:13:28.064Z,7.80
2022-11-24T15:16:02.951Z,10.50
2022-11-24T15:18:38.631Z,11.20
2022-11-24T15:21:08.334Z,10.07
2022-11-24T15:23:37.291Z,11.60
2022-11-24T15:26:30.218Z,10.13
2022-11-24T15:29:00.477Z,9.97
2022-11-24T15:31:30.249Z,12.47
2022-11-24T15:33:58.508Z,8.90
2022-11-24T15:36:26.709Z,10.50
2022-11-24T15:38:55.009Z,11.80
2022-11-24T15:41:26.962Z,8.83
2022-11-24T15:43:59.152Z,12.20
2022-11-24T15:46:30.238Z,12.97
2022-11-24T15:48:58.470Z,8.53
2022-11-24T15:51:27.935Z,12.93
2022-11-24T15:54:00.946Z,12.33
2022-11-24T15:56:33.321Z,7.87
2022-11-24T15:59:01.749Z,12.63
2022-11-24T16:01:33.713Z,9.97
2022-11-24T16:04:02.278Z,10.10
2022-11-24T16:06:30.630Z,13.00
2022-11-24T16:08:59.216Z,11.87
2022-11-24T16:11:27.775Z,12.47
2022-11-24T16:13:56.010Z,15.17
2022-11-24T16:16:25.298Z,11.60
2022-11-24T16:18:55.005Z,13.07
2022-11-24T16:21:23.424Z,15.90
2022-11-24T16:23:51.855Z,12.20
2022-11-24T16:26:20.094Z,14.90
2022-11-24T16:28:48.261Z,17.07
2022-11-24T16:31:17.944Z,13.73
2022-11-24T16:33:46.630Z,15.37
2022-11-24T16:36:16.425Z,17.30
2022-11-24T16:38:44.964Z,12.27
2022-11-24T16:41:13.233Z,16.73
2022-11-24T16:43:41.580Z,17.73
2022-11-24T16:46:21.436Z,13.70
2022-11-24T16:48:51.974Z,15.80
2022-11-24T16:51:23.830Z,17.90
2022-11-24T16:53:58.892Z,12.67
2022-11-24T16:56:27.337Z,17.10
2022-11-24T16:58:56.101Z,18.23
2022-11-24T17:01:25.912Z,12.80
2022-11-24T17:03:54.627Z,18.77
2022-11-24T17:06:24.183Z,17.63
2022-11-24T17:08:52.373Z,13.07
2022-11-24T17:11:22.359Z,17.77
2022-11-24T17:13:51.062Z,18.27
2022-11-24T17:16:21.057Z,12.83
2022-11-24T17:18:49.796Z,17.67
2022-11-24T17:21:19.990Z,15.47
2022-11-24T17:23:53.747Z,13.27
2022-11-24T17:26:22.494Z,11.07
2022-11-24T17:28:50.847Z,10.00
2022-11-24T17:31:22.619Z,10.13
2022-11-24T17:33:51.335Z,11.93
2022-11-24T17:36:19.564Z,10.00
2022-11-24T17:38:50.383Z,10.10
2022-11-24T17:41:18.633Z,9.73
2022-11-24T17:43:50.415Z,9.10
2022-11-24T17:46:18.774Z,9.30
2022-11-24T17:48:47.656Z,8.87
2022-11-24T17:51:17.180Z,9.63
2022-11-24T17:53:49.345Z,9.50
2022-11-24T17:56:21.793Z,9.63
2022-11-24T17:58:50.548Z,9.80
2022-11-24T18:01:18.923Z,9.33
2022-11-24T18:03:50.501Z,8.97
2022-11-24T18:06:25.014Z,10.13
2022-11-24T18:08:54.087Z,10.13
2022-11-24T18:11:30.591Z,11.27
2022-11-24T18:14:02.167Z,10.13
2022-11-24T18:16:32.030Z,11.33
2022-11-24T18:19:08.768Z,12.13
2022-11-24T18:21:38.318Z,14.00
2022-11-24T18:24:06.952Z,15.10
2022-11-24T18:26:36.540Z,16.03
2022-11-24T18:29:05.258Z,16.83
2022-11-24T18:31:35.535Z,18.30
2022-11-24T18:34:04.458Z,18.03
2022-11-24T18:36:33.443Z,19.00
2022-11-24T18:39:02.300Z,18.40
2022-11-24T18:41:30.605Z,19.20
2022-11-24T18:44:02.561Z,19.33
2022-11-24T18:46:30.827Z,19.93
2022-11-24T18:48:59.223Z,18.40
2022-11-24T18:51:27.440Z,18.43
2022-11-24T18:53:57.978Z,19.73
2022-11-24T18:56:26.873Z,19.87
2022-11-24T18:58:56.361Z,18.73
2022-11-24T19:01:27.714Z,19.40
2022-11-24T19:03:57.706Z,20.10
2022-11-24T19:06:28.930Z,22.03
2022-11-24T19:08:57.678Z,23.13
2022-11-24T19:11:28.264Z,24.30
2022-11-24T19:13:57.077Z,22.53
2022-11-24T19:16:27.354Z,23.63
2022-11-24T19:19:00.426Z,24.37
2022-11-24T19:21:30.538Z,24.30
2022-11-24T19:24:04.178Z,22.17
2022-11-24T19:26:34.877Z,23.40
2022-11-24T19:29:03.239Z,23.57
2022-11-24T19:31:33.447Z,23.90
2022-11-24T19:34:03.139Z,23.93
2022-11-24T19:36:31.593Z,25.40
2022-11-24T19:39:00.517Z,23.63
2022-11-24T19:41:30.457Z,24.07
2022-11-24T19:43:59.470Z,25.53
2022-11-24T19:46:29.830Z,23.13
2022-11-24T19:49:01.297Z,23.73
2022-11-24T19:51:31.653Z,23.43
2022-11-24T19:54:00.253Z,23.80
2022-11-24T19:56:30.010Z,22.97
2022-11-24T19:58:58.513Z,24.00
2022-11-24T20:01:28.294Z,22.17
2022-11-24T20:03:59.271Z,21.17
2022-11-24T20:06:29.858Z,22.33
2022-11-24T20:08:59.272Z,22.10
2022-11-24T20:11:28.851Z,22.73
2022-11-24T20:13:57.890Z,22.00
2022-11-24T20:16:29.710Z,22.03
2022-11-24T20:18:59.257Z,22.00
2022-11-24T20:21:31.241Z,21.20
2022-11-24T20:24:01.181Z,26.27
2022-11-24T20:26:31.454Z,28.00
2022-11-24T20:29:01.055Z,27.93
2022-11-24T20:31:31.474Z,26.53
2022-11-24T20:34:00.912Z,27.07
2022-11-24T20:36:32.202Z,26.77
2022-11-24T20:39:02.024Z,26.67
2022-11-24T20:41:32.009Z,25.93
2022-11-24T20:44:03.879Z,25.47
2022-11-24T20:46:33.950Z,27.57
2022-11-24T20:49:03.508Z,30.13
2022-11-24T20:51:34.882Z,28.17
2022-11-24T20:54:05.304Z,27.63
2022-11-24T20:56:35.174Z,29.23
2022-11-24T20:59:04.597Z,28.80
2022-11-24T21:01:35.235Z,29.70
2022-11-24T21:04:04.217Z,31.10
2022-11-24T21:06:33.803Z,29.77
2022-11-24T21:09:03.966Z,31.60
2022-11-24T21:11:32.874Z,30.77
2022-11-24T21:14:01.757Z,30.30
2022-11-24T21:16:31.878Z,28.87
2022-11-24T21:19:02.145Z,32.30
2022-11-24T21:21:34.068Z,33.63
2022-11-24T21:24:04.977Z,36.03
2022-11-24T21:26:35.489Z,36.90
2022-11-24T21:29:03.883Z,40.87
2022-11-24T21:31:32.139Z,40.13
2022-11-24T21:34:00.309Z,40.93
2022-11-24T21:36:28.494Z,38.67
2022-11-24T21:38:58.157Z,39.17
2022-11-24T21:41:29.442Z,38.07
2022-11-24T21:43:57.705Z,39.53
2022-11-24T21:46:26.304Z,42.60
2022-11-24T21:48:55.115Z,43.67
2022-11-24T21:51:23.290Z,43.87
2022-11-24T21:53:51.641Z,41.60
2022-11-24T21:56:21.819Z,43.10
2022-11-24T21:58:52.924Z,44.03
2022-11-24T22:01:23.385Z,43.53
2022-11-24T22:03:51.896Z,43.63
2022-11-24T22:06:20.986Z,45.30
2022-11-24T22:08:50.105Z,46.70
2022-11-24T22:11:20.198Z,47.57
2022-11-24T22:13:51.210Z,48.37
2022-11-24T22:16:21.088Z,47.87
2022-11-24T22:18:50.254Z,48.23
2022-11-24T22:21:19.810Z,47.60
2022-11-24T22:23:51.209Z,44.23
2022-11-24T22:26:21.556Z,45.27
2022-11-24T22:28:51.603Z,42.80
2022-11-24T22:31:22.078Z,43.60
2022-11-24T22:33:51.089Z,43.00
2022-11-24T22:36:21.350Z,43.00
2022-11-24T22:38:53.964Z,41.03
2022-11-24T22:41:22.471Z,39.63
2022-11-24T22:43:52.587Z,39.87
2022-11-24T22:46:23.030Z,39.47
2022-11-24T22:48:53.182Z,39.57
2022-11-24T22:51:23.467Z,37.90
2022-11-24T22:53:53.731Z,37.07
2022-11-24T22:56:21.936Z,39.80
2022-11-24T22:58:52.096Z,40.87
2022-11-24T23:01:22.093Z,39.67
2022-11-24T23:03:51.037Z,38.57
2022-11-24T23:06:20.789Z,39.47
2022-11-24T23:08:49.570Z,40.13
2022-11-24T23:11:20.121Z,39.10
2022-11-24T23:13:48.670Z,39.57
2022-11-24T23:16:19.727Z,38.70
2022-11-24T23:18:53.573Z,38.53
2022-11-24T23:21:24.469Z,38.47
2022-11-24T23:23:53.437Z,37.80
2022-11-24T23:26:24.045Z,35.73
2022-11-24T23:28:52.596Z,36.23
2022-11-24T23:31:27.338Z,35.20
2022-11-24T23:33:56.079Z,34.80
2022-11-24T23:36:24.296Z,34.57
2022-11-24T23:38:53.148Z,33.90
2022-11-24T23:41:23.066Z,33.43
2022-11-24T23:43:52.326Z,31.57
2022-11-24T23:46:23.137Z,32.43
2022-11-24T23:48:53.437Z,31.93
2022-11-24T23:51:23.586Z,31.13
2022-11-24T23:53:52.788Z,32.13
2022-11-24T23:56:22.540Z,32.57
2022-11-24T23:58:51.262Z,32.80
